Decatur Airport
KDEC : now visible

Airfield :











YOU CAN JOIN US ON...

 
LOGIN :

Register | Disclaimer

   EN    FR    IT 

 









Legend :    VFR   Marginal VFR   IFR   Intensive IFR   Very Intensive IFR
Visi :
Ceiling :
>= 8 km
>= 3000ft
5 to 8 km
1000 to 3000 ft
1500m to 5 km
500 to 1000 ft
800 to 1500m
200 to 500 ft
< 800m
< 200 ft
Symbols :   Thunderstorms  Fog  Heavy snow  Heavy precipitations  Wind > 20 kt






- Airport Elevation : 682 ft
- IATA code : DEC


KDEC - Decatur

CURRENT METAR :
  • 130554Z AUTO 04003KT 10SM CLR 19/18 A3008 RMK AO2 SLP181 T01890178 10261 20183 402940178 53007

EXPIRED METARs :
  • 130454Z AUTO 00000KT 10SM CLR 19/18 A3007 RMK AO2 SLP179 T01890178
  • 130354Z AUTO 08003KT 10SM CLR 19/19 A3007 RMK AO2 SLP176 T01940189

TAF KDEC
Valid from the 13 at 06:00 until the 14 at 06:00 UTC


130520Z 1306/1406 06003KT P6SM FEW250
FM131600 08006KT P6SM FEW030 SCT070
KZKC FIR / North America



MET'MAP, your aeronautical weather chart ! - Copyright ORBIFLY December 2007 - Disclaimer

ORBIFLY MET'MAP TEAM :

Programming & Development : Alexandra Zaïnal
Concept & original design : Baudouin d'Aumeries
Assistance for programming : Marc-Olivier Méhu
Technical & hardware support : Manuel Goepfert

Contact : metmap@orbifly.com




SOURCES & CREDITS :

   NOAA       Earth
Advisory